Time;durP1;ratioP1;P1;durP2;ratioP2;P2;SDS_P1;SDS_P2;PMS_P1;PMS_P2;Temp;Humidity;BMP_temperature;BMP_pressure;BME280_temperature;BME280_humidity;BME280_pressure;Samples;Min_cycle;Max_cycle;Signal;HPM_P1;HPM_P2
2023/10/05 00:04:41;;;;;;;;;;;16.00;80.60;;;16.25;50.37;99687.59;5032248;27;123912;-90
2023/10/05 00:07:26;;;;;;;;;;;16.00;80.60;;;16.22;50.79;99685.44;5031140;27;115420;-89
2023/10/05 00:09:57;;;;;;;;;;;16.00;80.70;;;16.19;50.56;99674.97;5011484;27;114251;-89
2023/10/05 00:12:24;;;;;;;;;;;16.00;80.80;;;16.18;50.68;99684.47;5033364;27;124290;-90
2023/10/05 00:15:04;;;;;;;;;;;15.90;80.80;;;16.16;50.86;99681.19;5063871;27;124019;-89
2023/10/05 00:17:32;;;;;;;;;;;16.00;80.90;;;16.15;50.84;99682.34;5028731;27;114582;-89
2023/10/05 00:19:58;;;;;;;;;;;15.90;80.90;;;16.13;50.86;99676.28;5019654;28;113864;-90
2023/10/05 00:22:25;;;;;;;;;;;15.90;81.00;;;16.12;50.91;99674.66;5029137;27;123400;-90
2023/10/05 00:24:51;;;;;;;;;;;15.90;81.10;;;16.10;50.95;99677.75;5029385;27;124538;-89
2023/10/05 00:27:19;;;;;;;;;;;15.90;81.10;;;16.09;50.66;99675.28;5028201;27;114402;-89
2023/10/05 00:29:50;;;;;;;;;;;15.90;81.20;;;16.07;51.02;99667.25;5021764;27;114248;-89
2023/10/05 00:32:33;;;;;;;;;;;15.90;81.30;;;16.06;51.00;99673.97;5017886;27;123238;-90
2023/10/05 00:37:46;;;;;;;;;;;15.80;81.50;;;16.04;51.01;99662.34;5034045;27;115101;-89
2023/10/05 00:40:36;;;;;;;;;;;15.80;81.50;;;16.05;50.96;99657.59;5055299;27;112951;-89
2023/10/05 00:43:06;;;;;;;;;;;15.80;81.60;;;16.01;51.06;99653.81;5014777;27;123991;-90
2023/10/05 00:45:33;;;;;;;;;;;15.80;81.60;;;16.00;51.06;99660.53;5015358;28;121804;-90
2023/10/05 00:48:56;;;;;;;;;;;15.80;81.70;;;15.98;51.16;99657.25;5031688;27;113283;-89
2023/10/05 00:50:51;;;;;;;;;;;15.70;81.60;;;15.95;51.08;99663.47;5026817;27;114189;-89
2023/10/05 00:53:19;;;;;;;;;;;15.70;81.60;;;15.94;51.12;99656.28;5033831;27;122368;-89
2023/10/05 00:55:52;;;;;;;;;;;15.70;81.60;;;15.91;51.16;99657.75;5076157;27;124007;-89
2023/10/05 00:58:21;;;;;;;;;;;15.70;81.70;;;15.89;50.92;99646.91;5028665;27;115726;-89
2023/10/05 01:00:50;;;;;;;;;;;15.70;81.70;;;15.87;51.07;99635.28;5038863;27;114858;-90
2023/10/05 01:03:25;;;;;;;;;;;15.60;81.90;;;15.78;51.27;99631.69;5033840;27;124915;-89
2023/10/05 01:06:10;;;;;;;;;;;15.60;81.60;;;15.70;51.17;99640.84;5021865;27;124040;-89
2023/10/05 01:08:49;;;;;;;;;;;15.50;81.80;;;15.63;51.52;99632.94;5056968;27;114156;-89
2023/10/05 01:11:25;;;;;;;;;;;15.50;82.20;;;15.59;51.74;99629.16;5028497;27;113939;-90
2023/10/05 01:13:57;;;;;;;;;;;15.40;82.20;;;15.51;51.98;99631.94;5030776;27;124578;-89
2023/10/05 01:16:24;;;;;;;;;;;15.40;82.50;;;15.40;52.06;99625.88;5028859;27;124012;-90
2023/10/05 01:18:52;;;;;;;;;;;15.30;82.70;;;15.30;52.65;99618.63;5063869;27;114541;-89
2023/10/05 01:21:18;;;;;;;;;;;15.20;83.80;;;15.22;52.90;99616.63;5031534;27;114629;-89
2023/10/05 01:23:49;;;;;;;;;;;15.10;83.40;;;15.15;53.04;99619.06;5030776;27;124423;-89
2023/10/05 01:26:15;;;;;;;;;;;15.10;83.60;;;15.11;52.89;99618.09;5064906;27;123881;-91
2023/10/05 01:28:42;;;;;;;;;;;15.00;83.70;;;15.10;53.25;99622.00;5029759;27;114647;-89
2023/10/05 01:31:16;;;;;;;;;;;15.00;84.00;;;15.08;53.36;99618.72;5027856;27;113993;-89
2023/10/05 01:33:46;;;;;;;;;;;15.00;84.30;;;15.02;53.67;99620.84;5028292;27;124207;-89
2023/10/05 01:36:16;;;;;;;;;;;14.90;84.60;;;14.97;53.77;99624.59;5033207;27;124899;-89
2023/10/05 01:38:45;;;;;;;;;;;14.80;84.80;;;14.87;54.28;99624.88;5049189;27;113773;-89
2023/10/05 01:41:16;;;;;;;;;;;14.80;85.70;;;14.76;54.66;99629.88;5032436;27;113470;-90
2023/10/05 01:43:42;;;;;;;;;;;14.70;86.00;;;14.70;54.89;99624.78;5028337;27;124223;-89
2023/10/05 01:46:11;;;;;;;;;;;14.70;86.40;;;14.63;55.58;99624.41;5030033;27;124690;-89
2023/10/05 01:48:41;;;;;;;;;;;14.60;87.00;;;14.54;55.61;99622.41;5029497;27;115601;-88
2023/10/05 01:51:15;;;;;;;;;;;14.50;87.40;;;14.46;55.78;99609.25;5029613;27;114983;-90
2023/10/05 01:53:43;;;;;;;;;;;14.40;87.70;;;14.45;55.57;99618.72;5032037;27;122302;-89
2023/10/05 01:56:18;;;;;;;;;;;14.40;87.50;;;14.45;55.62;99612.34;5030608;27;123266;-89
2023/10/05 01:58:50;;;;;;;;;;;14.40;87.70;;;14.44;55.89;99608.75;5025066;27;114973;-89
2023/10/05 02:01:18;;;;;;;;;;;14.30;88.10;;;14.44;55.79;99597.63;5024767;27;113135;-88
2023/10/05 02:03:45;;;;;;;;;;;14.30;88.10;;;14.44;55.54;99594.84;5066107;27;123469;-89
2023/10/05 02:06:15;;;;;;;;;;;14.30;88.20;;;14.47;55.85;99605.31;4988518;28;123989;-90
2023/10/05 02:08:42;;;;;;;;;;;14.30;88.50;;;14.47;55.71;99605.31;4990190;28;113953;-89
2023/10/05 02:11:09;;;;;;;;;;;14.40;88.40;;;14.47;55.86;99605.31;4989991;28;112422;-89
2023/10/05 02:13:36;;;;;;;;;;;14.30;88.80;;;14.47;55.72;99612.84;4987154;28;124116;-89
2023/10/05 02:16:05;;;;;;;;;;;14.30;88.50;;;14.48;55.92;99606.97;4988824;28;123933;-89
2023/10/05 02:18:34;;;;;;;;;;;14.30;88.90;;;14.48;55.81;99606.97;4973156;28;112811;-89
2023/10/05 02:21:07;;;;;;;;;;;14.30;88.80;;;14.47;55.67;99608.09;4984161;28;112048;-88
2023/10/05 02:23:39;;;;;;;;;;;14.30;88.70;;;14.44;55.77;99603.19;4986907;28;123575;-87
2023/10/05 02:26:23;;;;;;;;;;;14.30;88.70;;;14.42;55.69;99608.25;4989155;28;123386;-87
2023/10/05 02:28:55;;;;;;;;;;;14.30;88.60;;;14.44;55.28;99605.97;4987392;28;114830;-88
2023/10/05 02:31:23;;;;;;;;;;;14.30;88.50;;;14.44;55.46;99605.97;5007189;28;112995;-89
2023/10/05 02:33:52;;;;;;;;;;;14.30;88.40;;;14.43;55.22;99609.09;4986850;28;122924;-89
2023/10/05 02:36:21;;;;;;;;;;;14.20;88.30;;;14.40;55.16;99618.03;4992904;28;124018;-89
2023/10/05 02:38:53;;;;;;;;;;;14.20;88.20;;;14.39;55.34;99603.31;5039315;27;114991;-88
2023/10/05 02:41:39;;;;;;;;;;;14.20;88.30;;;14.39;55.37;99600.53;5028505;27;112815;-89
2023/10/05 02:44:17;;;;;;;;;;;14.20;88.40;;;14.40;55.21;99604.13;5058599;27;125012;-88
2023/10/05 02:46:50;;;;;;;;;;;14.20;88.30;;;14.42;55.18;99601.84;5016621;27;123630;-88
2023/10/05 02:49:22;;;;;;;;;;;14.20;88.40;;;14.40;55.33;99607.75;5048256;27;113645;-90
2023/10/05 02:51:49;;;;;;;;;;;14.20;88.50;;;14.36;55.52;99595.63;5012614;28;113063;-89
2023/10/05 02:54:15;;;;;;;;;;;14.30;88.80;;;14.31;55.81;99606.88;5015263;27;123861;-88
2023/10/05 02:56:42;;;;;;;;;;;14.20;89.00;;;14.24;55.83;99596.22;5070034;27;123057;-88
2023/10/05 02:59:14;;;;;;;;;;;14.10;89.00;;;14.23;55.99;99602.88;5047679;27;112422;-88
2023/10/05 03:01:43;;;;;;;;;;;14.10;88.90;;;14.22;56.15;99604.03;5034820;27;114213;-88
2023/10/05 03:04:21;;;;;;;;;;;14.10;89.40;;;14.21;56.24;99598.78;5052110;27;123644;-89
2023/10/05 03:06:53;;;;;;;;;;;14.10;89.60;;;14.17;56.39;99592.22;5069983;27;124288;-88
2023/10/05 03:09:21;;;;;;;;;;;14.10;89.60;;;14.14;56.66;99596.47;5036648;27;114933;-88
2023/10/05 03:11:52;;;;;;;;;;;14.00;90.00;;;14.10;56.87;99587.94;5028922;27;113479;-89
2023/10/05 03:14:18;;;;;;;;;;;14.00;90.00;;;14.11;56.61;99580.44;5034316;27;124326;-88
2023/10/05 03:16:47;;;;;;;;;;;14.00;90.10;;;14.09;56.88;99589.06;5056823;27;124230;-89
2023/10/05 03:19:21;;;;;;;;;;;14.00;90.20;;;14.05;56.78;99588.06;5048490;27;112815;-91
2023/10/05 03:21:58;;;;;;;;;;;14.00;90.20;;;14.04;56.98;99594.75;5026338;28;113594;-88
2023/10/05 03:24:25;;;;;;;;;;;13.90;90.10;;;14.01;57.33;99591.78;5041438;27;124113;-87
2023/10/05 03:26:55;;;;;;;;;;;13.90;90.40;;;13.95;57.05;99593.88;5043854;28;122199;-89
2023/10/05 03:29:25;;;;;;;;;;;13.80;90.30;;;13.93;57.25;99587.81;5041478;27;114936;-88
2023/10/05 03:34:39;;;;;;;;;;;16.50;91.70;;;13.96;57.21;99601.06;5044732;27;124191;-88
2023/10/05 03:37:08;;;;;;;;;;;13.80;90.50;;;13.94;57.50;99608.88;5072134;27;123826;-86
2023/10/05 03:40:06;;;;;;;;;;;13.80;90.70;;;13.89;57.66;99606.25;5040705;27;114783;-86
2023/10/05 03:42:32;;;;;;;;;;;13.80;90.70;;;13.88;57.57;99619.31;5047447;27;115934;-90
2023/10/05 03:45:09;;;;;;;;;;;13.70;90.60;;;13.90;57.76;99614.25;5042801;27;123572;-89
2023/10/05 03:47:38;;;;;;;;;;;13.70;90.80;;;13.91;57.65;99606.75;5061526;27;124732;-89
2023/10/05 03:50:17;;;;;;;;;;;13.70;90.70;;;13.93;57.25;99612.81;5041571;27;113784;-89
2023/10/05 03:52:44;;;;;;;;;;;13.70;90.80;;;13.97;57.73;99601.88;5041742;27;113721;-88
2023/10/05 03:55:12;;;;;;;;;;;13.90;90.80;;;14.02;57.56;99618.44;5032907;27;124601;-90
2023/10/05 03:57:43;;;;;;;;;;;13.80;90.80;;;14.08;57.36;99614.41;5065641;27;124057;-89
2023/10/05 04:02:50;;;;;;;;;;;13.90;90.80;;;14.15;57.14;99614.78;5041104;27;114790;-88
2023/10/05 04:05:20;;;;;;;;;;;13.90;90.80;;;14.14;57.17;99619.50;5036808;27;122395;-89
2023/10/05 04:07:58;;;;;;;;;;;13.90;90.90;;;14.11;57.39;99627.66;5039981;28;123567;-91
2023/10/05 04:10:34;;;;;;;;;;;13.80;90.90;;;14.04;57.43;99619.75;5037729;27;115459;-88
2023/10/05 04:13:05;;;;;;;;;;;13.80;90.90;;;13.98;57.49;99623.81;5042274;27;96309;-88
2023/10/05 04:15:33;;;;;;;;;;;13.70;91.00;;;13.93;57.80;99630.28;5038225;27;124267;-88
2023/10/05 04:18:00;;;;;;;;;;;13.70;91.10;;;13.86;57.74;99623.53;5039470;27;124365;-88
2023/10/05 04:20:29;;;;;;;;;;;13.60;91.10;;;13.84;57.88;99620.28;5039690;27;115991;-89
2023/10/05 04:23:02;;;;;;;;;;;13.60;91.20;;;13.80;58.01;99627.56;5044332;27;112915;-89
2023/10/05 04:25:29;;;;;;;;;;;13.60;91.20;;;13.74;58.06;99626.06;5042484;28;124842;-89
2023/10/05 04:27:58;;;;;;;;;;;13.50;91.20;;;13.73;57.99;99618.84;5039526;27;121868;-89
2023/10/05 04:30:24;;;;;;;;;;;13.60;91.20;;;13.72;58.21;99622.75;5054132;27;112735;-89
2023/10/05 04:32:50;;;;;;;;;;;13.50;91.10;;;13.72;58.19;99609.69;5043094;27;112026;-90
2023/10/05 04:35:27;;;;;;;;;;;13.50;91.20;;;13.63;58.60;99615.19;5041979;27;124129;-88
2023/10/05 04:37:56;;;;;;;;;;;13.50;91.40;;;13.61;58.45;99616.63;5043318;28;124357;-88
2023/10/05 04:40:24;;;;;;;;;;;13.50;91.40;;;13.58;58.52;99615.28;5067554;27;114370;-89
2023/10/05 04:42:58;;;;;;;;;;;13.40;91.40;;;13.58;58.30;99618.06;5048336;27;113750;-90
2023/10/05 04:45:24;;;;;;;;;;;13.40;91.30;;;13.61;58.46;99619.41;5057950;27;123961;-90
2023/10/05 04:47:58;;;;;;;;;;;13.50;91.40;;;13.63;58.57;99620.72;5040729;27;123145;-89
2023/10/05 04:50:28;;;;;;;;;;;13.50;91.50;;;13.64;58.36;99619.59;5041229;27;115022;-89
2023/10/05 04:53:00;;;;;;;;;;;13.50;91.50;;;13.64;58.64;99616.81;5071820;27;113462;-90
2023/10/05 04:55:35;;;;;;;;;;;13.50;91.60;;;13.64;58.74;99613.22;5040942;27;124752;-89
2023/10/05 04:58:17;;;;;;;;;;;13.50;91.60;;;13.59;58.97;99619.69;5039482;27;123943;-90
2023/10/05 05:06:10;;;;;;;;;;;13.40;91.60;;;13.60;58.67;99615.00;5052540;27;124189;-89
2023/10/05 05:08:38;;;;;;;;;;;13.40;91.70;;;13.59;58.71;99616.91;5040780;27;122930;-89
2023/10/05 05:11:26;;;;;;;;;;;13.40;91.70;;;13.60;58.95;99610.25;5037159;27;114947;-89
2023/10/05 05:13:52;;;;;;;;;;;13.40;91.80;;;13.62;58.84;99605.22;5041161;27;114571;-88
2023/10/05 05:16:19;;;;;;;;;;;13.40;91.90;;;13.62;58.92;99602.44;5037480;27;124670;-89
2023/10/05 05:18:45;;;;;;;;;;;13.40;91.80;;;13.66;58.67;99606.22;5033763;27;124411;-90
2023/10/05 05:21:14;;;;;;;;;;;13.40;91.80;;;13.69;58.79;99607.53;5034100;27;113922;-90
2023/10/05 05:23:41;;;;;;;;;;;13.40;91.90;;;13.72;58.99;99608.88;5068650;27;114169;-89
2023/10/05 05:26:11;;;;;;;;;;;13.40;92.00;;;13.74;59.03;99604.66;5033212;27;124384;-90
2023/10/05 05:28:38;;;;;;;;;;;13.40;92.10;;;13.76;58.84;99612.69;5025004;28;122253;-89
2023/10/05 05:31:09;;;;;;;;;;;13.40;92.10;;;13.76;58.73;99610.72;5031436;27;114728;-89
2023/10/05 05:33:38;;;;;;;;;;;13.50;92.00;;;13.79;58.63;99612.06;5032782;27;113750;-88
2023/10/05 05:36:09;;;;;;;;;;;13.50;91.90;;;13.74;58.47;99621.31;5036526;27;124573;-89
2023/10/05 05:38:38;;;;;;;;;;;13.50;91.90;;;13.69;58.54;99622.25;5052854;27;122748;-89
2023/10/05 05:41:12;;;;;;;;;;;13.40;91.80;;;13.66;58.72;99619.28;5065217;27;114744;-89
2023/10/05 05:43:41;;;;;;;;;;;13.40;91.90;;;13.64;58.62;99625.13;5034058;27;113717;-88
2023/10/05 05:46:14;;;;;;;;;;;13.40;91.90;;;13.64;58.82;99627.09;5045693;27;123255;-90
2023/10/05 05:48:42;;;;;;;;;;;13.40;91.90;;;13.64;58.72;99644.56;5016679;28;123541;-91
2023/10/05 05:51:14;;;;;;;;;;;13.40;91.90;;;13.67;58.70;99643.97;5029284;27;115533;-91
2023/10/05 05:53:44;;;;;;;;;;;13.40;91.90;;;13.68;58.91;99644.78;5062449;27;113739;-91
2023/10/05 05:56:19;;;;;;;;;;;13.40;91.90;;;13.67;58.78;99635.66;5031163;28;123494;-92
2023/10/05 05:58:46;;;;;;;;;;;13.40;91.90;;;13.69;58.75;99611.13;5039900;27;122664;-90
2023/10/05 06:01:35;;;;;;;;;;;13.40;91.90;;;13.66;58.58;99614.53;5040648;27;115765;-89
2023/10/05 06:04:00;;;;;;;;;;;13.40;91.90;;;13.61;58.74;99634.09;5049406;27;114816;-91
2023/10/05 06:06:26;;;;;;;;;;;13.40;91.90;;;13.57;58.88;99618.41;5054431;27;124241;-89
2023/10/05 06:08:52;;;;;;;;;;;13.40;92.00;;;13.57;58.78;99615.63;5052051;27;123920;-91
2023/10/05 06:11:19;;;;;;;;;;;13.30;91.90;;;13.58;58.96;99629.16;5048561;27;114656;-91
2023/10/05 06:13:45;;;;;;;;;;;13.30;91.90;;;13.62;58.80;99637.69;5039344;27;113870;-90
2023/10/05 06:16:13;;;;;;;;;;;13.40;92.00;;;13.67;58.73;99632.88;5046238;27;124363;-90
2023/10/05 06:18:39;;;;;;;;;;;13.40;92.00;;;13.72;58.51;99622.75;5066214;27;123220;-90
2023/10/05 06:21:06;;;;;;;;;;;13.40;91.90;;;13.79;58.70;99631.50;5048185;27;113471;-91
2023/10/05 06:23:33;;;;;;;;;;;13.50;92.00;;;13.83;58.36;99624.16;5059814;27;113674;-89
2023/10/05 06:26:00;;;;;;;;;;;13.50;92.00;;;13.84;58.43;99648.03;5045465;27;124560;-90
2023/10/05 06:28:27;;;;;;;;;;;13.50;91.90;;;13.83;58.43;99640.81;5059364;27;126370;-89
2023/10/05 06:31:01;;;;;;;;;;;13.50;92.10;;;13.81;58.63;99631.97;5023655;27;112915;-90
2023/10/05 06:33:29;;;;;;;;;;;13.50;92.00;;;13.77;58.79;99628.19;5029700;27;113174;-91
2023/10/05 06:35:56;;;;;;;;;;;13.50;92.10;;;13.75;58.63;99641.56;5033578;27;123880;-91
2023/10/05 06:38:22;;;;;;;;;;;13.40;92.10;;;13.76;58.69;99651.56;5031960;27;122088;-90
2023/10/05 06:40:50;;;;;;;;;;;13.40;92.10;;;13.78;58.83;99654.84;5032930;27;114526;-90
2023/10/05 06:43:21;;;;;;;;;;;13.50;92.20;;;13.78;58.66;99658.47;5025818;27;113105;-90
2023/10/05 06:45:48;;;;;;;;;;;13.50;92.20;;;13.78;59.00;99654.84;5022842;27;124628;-91
2023/10/05 06:48:15;;;;;;;;;;;13.60;92.20;;;13.76;59.07;99666.28;5042064;27;123436;-90
2023/10/05 06:50:41;;;;;;;;;;;13.50;92.30;;;13.68;59.08;99670.59;5034639;27;115545;-90
2023/10/05 06:53:07;;;;;;;;;;;13.40;92.30;;;13.64;59.40;99672.34;5065949;27;114149;-90
2023/10/05 06:55:34;;;;;;;;;;;13.40;92.70;;;13.59;59.55;99668.88;5020245;27;124202;-90
2023/10/05 06:58:03;;;;;;;;;;;13.30;92.50;;;13.58;59.38;99668.03;5041811;27;123004;-90
2023/10/05 07:00:35;;;;;;;;;;;13.30;92.50;;;13.58;59.40;99676.38;5029990;27;114108;-89
2023/10/05 07:03:06;;;;;;;;;;;12.60;92.20;;;13.60;59.58;99676.91;5029029;27;113669;-91
2023/10/05 07:05:32;;;;;;;;;;;12.30;92.10;;;13.66;59.23;99685.94;5031540;27;123939;-92
2023/10/05 07:08:01;;;;;;;;;;;14.90;93.20;;;13.72;59.46;99672.75;5064889;27;124642;-89
2023/10/05 07:10:27;;;;;;;;;;;13.40;92.60;;;13.76;59.30;99673.78;5029580;28;113899;-91
2023/10/05 07:12:58;;;;;;;;;;;13.40;92.70;;;13.76;59.45;99685.72;5028293;27;113937;-91
2023/10/05 07:15:25;;;;;;;;;;;13.40;92.70;;;13.78;59.35;99682.59;5028056;27;124660;-90
2023/10/05 07:17:51;;;;;;;;;;;13.40;92.70;;;13.80;59.38;99699.78;5029868;27;125195;-91
2023/10/05 07:20:22;;;;;;;;;;;13.50;92.60;;;13.84;59.00;99695.28;5049594;27;114732;-90
2023/10/05 07:22:48;;;;;;;;;;;13.50;92.50;;;13.88;59.08;99687.94;5049618;27;114391;-89
2023/10/05 07:25:18;;;;;;;;;;;13.60;92.50;;;13.88;59.04;99682.38;5015641;27;123423;-90
2023/10/05 07:27:45;;;;;;;;;;;13.50;92.40;;;13.90;58.96;99685.69;5041290;27;124330;-90
2023/10/05 07:30:11;;;;;;;;;;;13.60;92.40;;;13.96;58.88;99695.53;5013511;28;113841;-91
2023/10/05 07:32:38;;;;;;;;;;;13.60;92.40;;;14.04;58.49;99689.22;5010782;28;112902;-90
2023/10/05 07:35:05;;;;;;;;;;;13.90;92.50;;;14.13;58.67;99680.94;5057545;27;123642;-90
2023/10/05 07:37:32;;;;;;;;;;;13.70;92.50;;;14.18;58.78;99685.56;5025745;27;123955;-90
2023/10/05 07:39:58;;;;;;;;;;;13.80;92.50;;;14.22;58.49;99692.97;5058941;27;115421;-89
2023/10/05 07:42:27;;;;;;;;;;;13.80;92.50;;;14.24;58.44;99690.72;5031194;27;115450;-90
2023/10/05 07:44:53;;;;;;;;;;;13.80;92.50;;;14.24;58.63;99689.88;5031619;27;124533;-91
2023/10/05 07:47:20;;;;;;;;;;;13.90;92.50;;;14.28;58.43;99688.94;5012950;28;123055;-91
2023/10/05 07:49:46;;;;;;;;;;;13.90;92.50;;;14.32;58.26;99692.75;5029824;27;114483;-89
2023/10/05 07:52:16;;;;;;;;;;;13.90;92.50;;;14.35;58.25;99696.84;5027214;27;114080;-91
2023/10/05 07:54:42;;;;;;;;;;;13.90;92.40;;;14.41;57.96;99717.00;5040503;27;124671;-90
2023/10/05 07:57:10;;;;;;;;;;;13.90;92.40;;;14.50;58.05;99709.53;5036855;27;125098;-89
2023/10/05 07:59:37;;;;;;;;;;;14.00;92.40;;;14.59;57.96;99702.13;5031270;27;114832;-91
2023/10/05 08:02:04;;;;;;;;;;;14.10;92.30;;;14.68;57.64;99704.94;5031339;27;113719;-90
2023/10/05 08:04:32;;;;;;;;;;;14.20;92.30;;;14.74;57.73;99703.66;5027326;28;123996;-88
2023/10/05 08:06:59;;;;;;;;;;;14.20;92.20;;;14.81;57.20;99709.63;5065597;27;123628;-89
2023/10/05 08:09:28;;;;;;;;;;;14.30;92.10;;;14.87;57.21;99713.09;5042816;27;114173;-89
2023/10/05 08:11:57;;;;;;;;;;;14.40;92.00;;;14.90;56.85;99699.34;5051334;27;113938;-90
2023/10/05 08:14:24;;;;;;;;;;;14.40;91.90;;;14.94;56.87;99702.31;5065432;27;123224;-89
2023/10/05 08:16:51;;;;;;;;;;;14.50;91.90;;;15.03;56.91;99709.56;5020644;27;123777;-90
2023/10/05 08:19:21;;;;;;;;;;;14.60;91.90;;;15.12;56.64;99714.34;5037567;27;114566;-89
2023/10/05 08:21:48;;;;;;;;;;;14.60;91.80;;;15.17;56.36;99714.22;5062731;27;113738;-90
2023/10/05 08:24:17;;;;;;;;;;;14.70;91.60;;;15.23;56.12;99712.91;5016327;27;123983;-87
2023/10/05 08:26:43;;;;;;;;;;;14.70;91.60;;;15.29;56.20;99728.38;5039134;27;123709;-88
2023/10/05 08:29:13;;;;;;;;;;;14.80;91.50;;;15.35;55.92;99729.03;5028816;27;115227;-89
2023/10/05 08:31:44;;;;;;;;;;;14.90;91.50;;;15.40;55.63;99731.69;5029779;27;114698;-88
2023/10/05 08:34:14;;;;;;;;;;;14.90;91.40;;;15.44;55.66;99733.47;5028084;27;124076;-88
2023/10/05 08:36:41;;;;;;;;;;;14.90;91.20;;;15.48;55.59;99727.28;5032483;27;123170;-89
2023/10/05 08:39:10;;;;;;;;;;;15.00;91.20;;;15.52;55.47;99733.84;5029606;27;114392;-88
2023/10/05 08:41:41;;;;;;;;;;;15.00;91.20;;;15.59;55.49;99729.44;5032701;27;113488;-88
2023/10/05 08:44:26;;;;;;;;;;;15.10;91.30;;;15.68;55.21;99726.69;5028998;27;124241;-88
2023/10/05 08:46:55;;;;;;;;;;;15.10;91.10;;;15.71;55.25;99719.66;5021734;27;124191;-88
2023/10/05 08:49:33;;;;;;;;;;;15.20;91.00;;;15.75;54.89;99713.13;5049154;27;114528;-90
2023/10/05 08:51:59;;;;;;;;;;;15.30;90.90;;;15.82;55.02;99716.25;5028762;27;114614;-88
2023/10/05 08:54:29;;;;;;;;;;;15.30;90.90;;;15.89;54.79;99732.50;5028093;27;124037;-88
2023/10/05 08:56:58;;;;;;;;;;;15.40;90.80;;;15.98;54.45;99719.38;5020902;27;123993;-88
2023/10/05 08:59:26;;;;;;;;;;;15.50;90.80;;;16.10;54.39;99715.97;5024884;27;114374;-88
2023/10/05 09:01:59;;;;;;;;;;;15.60;90.80;;;16.21;54.75;99720.06;5027550;27;114055;-88
2023/10/05 09:04:43;;;;;;;;;;;15.70;90.70;;;16.30;53.86;99717.28;5029267;27;124560;-88
2023/10/05 09:07:25;;;;;;;;;;;15.70;90.50;;;16.38;53.67;99722.03;5031047;27;123787;-89
2023/10/05 09:09:52;;;;;;;;;;;15.80;90.40;;;16.40;53.26;99714.16;5031168;27;113149;-89
2023/10/05 09:12:19;;;;;;;;;;;15.90;90.20;;;16.44;53.61;99711.53;5062020;27;113782;-88
2023/10/05 09:14:46;;;;;;;;;;;15.90;90.20;;;16.50;53.48;99711.03;5028431;27;124445;-89
2023/10/05 09:17:15;;;;;;;;;;;16.00;90.20;;;16.57;53.21;99702.16;5030378;27;123962;-87
2023/10/05 09:19:44;;;;;;;;;;;16.00;90.10;;;16.66;53.20;99703.00;5027800;27;115939;-86
2023/10/05 09:22:12;;;;;;;;;;;16.20;90.10;;;16.74;53.03;99706.91;5029119;28;113675;-88
2023/10/05 09:24:43;;;;;;;;;;;16.20;90.00;;;16.81;53.01;99709.22;5027350;27;124157;-88
2023/10/05 09:27:17;;;;;;;;;;;16.30;90.00;;;16.90;53.00;99712.78;5030541;27;122977;-87
2023/10/05 09:29:44;;;;;;;;;;;16.30;90.00;;;16.99;52.69;99713.59;5028797;27;115037;-87
2023/10/05 09:32:36;;;;;;;;;;;16.50;89.80;;;17.09;52.49;99721.63;5028815;27;113683;-89
2023/10/05 09:35:09;;;;;;;;;;;16.50;89.70;;;17.19;52.27;99723.22;5058298;27;124318;-88
2023/10/05 09:37:39;;;;;;;;;;;16.60;89.40;;;17.27;52.18;99724.34;5029176;27;124113;-87
2023/10/05 09:40:15;;;;;;;;;;;16.70;89.20;;;17.36;52.06;99722.34;5066678;27;114467;-89
2023/10/05 09:42:42;;;;;;;;;;;16.80;89.00;;;17.43;51.83;99717.03;5031169;27;113989;-88
2023/10/05 09:45:12;;;;;;;;;;;16.90;88.90;;;17.52;51.44;99714.22;5028057;27;124225;-87
2023/10/05 09:47:40;;;;;;;;;;;17.00;88.50;;;17.59;51.33;99714.50;5028346;27;124678;-88
2023/10/05 09:50:10;;;;;;;;;;;17.70;88.80;;;17.65;51.15;99714.00;5054753;27;114775;-88
2023/10/05 09:52:43;;;;;;;;;;;17.10;88.00;;;17.73;51.02;99723.50;5023916;27;113494;-87
2023/10/05 09:55:19;;;;;;;;;;;17.20;87.80;;;17.80;51.11;99722.97;5015358;27;124788;-86
2023/10/05 09:57:52;;;;;;;;;;;17.30;87.80;;;17.88;50.83;99727.69;5028552;27;123926;-87
2023/10/05 10:03:17;;;;;;;;;;;17.50;87.50;;;18.08;50.50;99726.06;4993756;28;114256;-87
2023/10/05 10:05:55;;;;;;;;;;;17.60;87.30;;;18.16;50.19;99715.97;5063438;27;124274;-87
2023/10/05 10:08:28;;;;;;;;;;;17.70;87.00;;;18.24;49.97;99699.16;5012986;28;122872;-86
2023/10/05 10:11:08;;;;;;;;;;;17.80;86.80;;;18.30;50.05;99700.56;5026251;27;115303;-88
2023/10/05 10:13:39;;;;;;;;;;;17.80;86.40;;;18.37;49.82;99697.19;5040625;27;114124;-87
2023/10/05 10:16:22;;;;;;;;;;;17.90;86.20;;;18.40;49.17;99699.31;5061373;27;124455;-86
2023/10/05 10:18:53;;;;;;;;;;;17.90;85.20;;;18.44;48.43;99703.06;5027138;28;123334;-86
2023/10/05 10:21:24;;;;;;;;;;;18.00;84.10;;;18.48;48.53;99706.84;5027841;27;114609;-88
2023/10/05 10:24:01;;;;;;;;;;;18.10;84.20;;;18.53;48.38;99697.38;5028001;27;113623;-87
2023/10/05 10:26:30;;;;;;;;;;;18.10;83.90;;;18.57;47.99;99698.34;5026215;28;124254;-87
2023/10/05 10:28:57;;;;;;;;;;;18.10;82.90;;;18.59;47.44;99707.22;5028155;27;123893;-86
2023/10/05 10:31:42;;;;;;;;;;;18.20;82.20;;;18.61;47.84;99704.06;5014796;27;113717;-87
2023/10/05 10:34:50;;;;;;;;;;;18.20;82.50;;;18.64;47.81;99712.59;5017753;27;113940;-88
2023/10/05 10:37:44;;;;;;;;;;;18.30;82.60;;;18.71;47.47;99717.63;4993047;28;124405;-87
2023/10/05 10:45:42;;;;;;;;;;;18.50;82.30;;;18.98;47.04;99716.22;4992304;28;114164;-87
2023/10/05 10:48:14;;;;;;;;;;;18.50;81.90;;;19.02;46.63;99707.94;4989063;28;123951;-88
2023/10/05 10:50:40;;;;;;;;;;;18.60;81.30;;;19.06;46.80;99717.31;4992488;28;123838;-87
2023/10/05 10:53:23;;;;;;;;;;;18.60;81.30;;;19.12;46.63;99713.09;5008064;28;114920;-88
2023/10/05 10:56:27;;;;;;;;;;;18.70;81.20;;;19.19;46.63;99710.56;4970740;28;113248;-88
2023/10/05 10:59:11;;;;;;;;;;;18.80;81.20;;;19.23;46.19;99719.91;4997876;28;124590;-87
2023/10/05 11:02:11;;;;;;;;;;;18.80;80.20;;;19.28;45.33;99702.84;4993707;28;124485;-87
2023/10/05 11:04:43;;;;;;;;;;;18.90;79.60;;;19.34;45.49;99704.28;5007628;28;115548;-88
2023/10/05 11:07:10;;;;;;;;;;;19.00;79.40;;;19.39;45.25;99700.41;5005689;28;114675;-87
2023/10/05 11:09:47;;;;;;;;;;;19.00;79.00;;;19.41;44.87;99700.88;5008155;28;123413;-88
2023/10/05 11:12:16;;;;;;;;;;;19.00;78.40;;;19.45;45.29;99695.38;5038987;27;124865;-87
2023/10/05 11:14:46;;;;;;;;;;;19.10;78.80;;;19.45;45.24;99692.59;5016097;28;114297;-87
2023/10/05 11:17:35;;;;;;;;;;;19.10;78.70;;;19.42;45.50;99699.72;5010560;28;114632;-88
2023/10/05 11:20:18;;;;;;;;;;;19.10;78.80;;;19.43;45.22;99695.75;5001345;28;124463;-88
2023/10/05 11:22:44;;;;;;;;;;;19.10;78.50;;;19.44;45.21;99708.59;5047459;27;123336;-87
2023/10/05 11:25:16;;;;;;;;;;;19.10;78.40;;;19.45;45.13;99703.81;5017656;27;114359;-86
2023/10/05 11:27:55;;;;;;;;;;;19.10;77.90;;;19.44;45.19;99705.78;5041530;27;114127;-88
2023/10/05 11:30:25;;;;;;;;;;;19.10;77.90;;;19.48;45.18;99695.53;5010183;28;124274;-87
2023/10/05 11:32:56;;;;;;;;;;;19.10;77.90;;;19.51;44.78;99685.59;5042766;27;124627;-87
2023/10/05 11:35:28;;;;;;;;;;;19.20;77.60;;;19.51;44.80;99680.00;5026536;27;113359;-87
2023/10/05 11:37:58;;;;;;;;;;;19.20;77.20;;;19.51;44.80;99678.00;5010875;28;113731;-87
2023/10/05 11:40:55;;;;;;;;;;;19.20;77.10;;;19.52;44.89;99692.84;5009201;28;124239;-87
2023/10/05 11:43:22;;;;;;;;;;;19.30;77.30;;;19.55;44.29;99692.94;5006379;28;122893;-87
2023/10/05 11:46:12;;;;;;;;;;;19.20;76.30;;;19.52;43.86;99688.03;5004348;28;114786;-87
2023/10/05 11:48:42;;;;;;;;;;;19.20;75.70;;;19.53;44.28;99684.09;5000917;28;113814;-88
2023/10/05 11:51:13;;;;;;;;;;;19.20;76.10;;;19.56;44.23;99679.75;5042091;27;124468;-87
2023/10/05 11:53:39;;;;;;;;;;;19.20;76.10;;;19.59;44.15;99691.09;5048253;27;124164;-88